Agency, Missouri
Current Conditions -  °F | °C
As of 3:53 PM on Friday 24 Oct 2014 (Local Time) from KSTJ Reporting Station
Clear Clear  
Wind Chill: 77°   Ceiling: Unl
Heat Index: 79°   Visibility: 10mi
Dew Point: 63°   Wind: 15mph
Humidity: 62%   Direction: 200°SSW
Pressure: 29.91"   Gusts: 20mph
Location:  39.64°N, 94.74°W
Report Text: KSTJ 242053Z AUTO 20013G17KT 10SM CLR 25/17 A2991 RMK AO2 SLP125 T02500172 56024
Loading
Personal Weather Stations






























Interactive Weather Map
Tropical Storm Tracking
New forecast layout! Learn more

10-Day Weather Forecast

Advertisements
Track Severe Weather on mobile